<?xml version="1.0" encoding="UTF-8" standalone="no" ?>
<gpx xmlns="http://www.topografix.com/GPX/1/1" xmlns:xsi="http://www.w3.org/2001/XMLSchema-instance" xsi:schemaLocation="http://www.topografix.com/GPX/1/1 http://www.topografix.com/GPX/1/1/gpx.xsd" version="1.1" creator="VisuGPX - https://www.visugpx.com">
  <metadata>
    <name>Aravis-Combe Paccaly</name>
    <desc><![CDATA[Grande classique de ski de randonnée, la combe Paccaly en aller-retour.]]></desc>
  </metadata>
  <trk>
    <name><![CDATA[Tracé actuel: 28 MARS 2015 08:13]]></name>
    <trkseg>
      <trkpt lat="45.92236" lon="6.48435">
        <ele>1427.21</ele>
        <time>2015-03-28T07:13:18Z</time>
      </trkpt>
      <trkpt lat="45.92238" lon="6.48431">
        <ele>1443.56</ele>
        <time>2015-03-28T07:13:48Z</time>
      </trkpt>
      <trkpt lat="45.92237" lon="6.48433">
        <ele>1449.32</ele>
        <time>2015-03-28T07:14:18Z</time>
      </trkpt>
      <trkpt lat="45.92238" lon="6.48434">
        <ele>1448.36</ele>
        <time>2015-03-28T07:14:48Z</time>
      </trkpt>
      <trkpt lat="45.92226" lon="6.48448">
        <ele>1448.36</ele>
        <time>2015-03-28T07:15:18Z</time>
      </trkpt>
      <trkpt lat="45.92202" lon="6.48477">
        <ele>1450.77</ele>
        <time>2015-03-28T07:15:48Z</time>
      </trkpt>
      <trkpt lat="45.92186" lon="6.48505">
        <ele>1454.61</ele>
        <time>2015-03-28T07:16:18Z</time>
      </trkpt>
      <trkpt lat="45.92174" lon="6.4853">
        <ele>1457.02</ele>
        <time>2015-03-28T07:16:48Z</time>
      </trkpt>
      <trkpt lat="45.92163" lon="6.48561">
        <ele>1460.38</ele>
        <time>2015-03-28T07:17:18Z</time>
      </trkpt>
      <trkpt lat="45.92149" lon="6.48589">
        <ele>1464.71</ele>
        <time>2015-03-28T07:17:48Z</time>
      </trkpt>
      <trkpt lat="45.92137" lon="6.48615">
        <ele>1465.67</ele>
        <time>2015-03-28T07:18:18Z</time>
      </trkpt>
      <trkpt lat="45.92133" lon="6.48626">
        <ele>1466.15</ele>
        <time>2015-03-28T07:18:48Z</time>
      </trkpt>
      <trkpt lat="45.92129" lon="6.48641">
        <ele>1465.67</ele>
        <time>2015-03-28T07:19:18Z</time>
      </trkpt>
      <trkpt lat="45.92125" lon="6.48652">
        <ele>1466.15</ele>
        <time>2015-03-28T07:19:48Z</time>
      </trkpt>
      <trkpt lat="45.92133" lon="6.4867">
        <ele>1468.55</ele>
        <time>2015-03-28T07:20:18Z</time>
      </trkpt>
      <trkpt lat="45.92129" lon="6.48679">
        <ele>1469.51</ele>
        <time>2015-03-28T07:20:48Z</time>
      </trkpt>
      <trkpt lat="45.92131" lon="6.48683">
        <ele>1469.03</ele>
        <time>2015-03-28T07:21:18Z</time>
      </trkpt>
      <trkpt lat="45.9213" lon="6.48681">
        <ele>1469.03</ele>
        <time>2015-03-28T07:21:48Z</time>
      </trkpt>
      <trkpt lat="45.92136" lon="6.48681">
        <ele>1469.51</ele>
        <time>2015-03-28T07:22:18Z</time>
      </trkpt>
      <trkpt lat="45.92135" lon="6.48685">
        <ele>1469.51</ele>
        <time>2015-03-28T07:22:48Z</time>
      </trkpt>
      <trkpt lat="45.9214" lon="6.48686">
        <ele>1469.51</ele>
        <time>2015-03-28T07:23:18Z</time>
      </trkpt>
      <trkpt lat="45.9214" lon="6.48697">
        <ele>1469.51</ele>
        <time>2015-03-28T07:23:48Z</time>
      </trkpt>
      <trkpt lat="45.92139" lon="6.48696">
        <ele>1468.55</ele>
        <time>2015-03-28T07:24:18Z</time>
      </trkpt>
      <trkpt lat="45.92141" lon="6.487">
        <ele>1469.51</ele>
        <time>2015-03-28T07:24:48Z</time>
      </trkpt>
      <trkpt lat="45.92141" lon="6.487">
        <ele>1469.03</ele>
        <time>2015-03-28T07:25:18Z</time>
      </trkpt>
      <trkpt lat="45.92153" lon="6.48707">
        <ele>1468.55</ele>
        <time>2015-03-28T07:25:48Z</time>
      </trkpt>
      <trkpt lat="45.92165" lon="6.48738">
        <ele>1466.15</ele>
        <time>2015-03-28T07:26:18Z</time>
      </trkpt>
      <trkpt lat="45.92174" lon="6.48777">
        <ele>1463.26</ele>
        <time>2015-03-28T07:26:48Z</time>
      </trkpt>
      <trkpt lat="45.92179" lon="6.48821">
        <ele>1460.86</ele>
        <time>2015-03-28T07:27:18Z</time>
      </trkpt>
      <trkpt lat="45.92163" lon="6.48867">
        <ele>1457.02</ele>
        <time>2015-03-28T07:27:48Z</time>
      </trkpt>
      <trkpt lat="45.92181" lon="6.48898">
        <ele>1457.98</ele>
        <time>2015-03-28T07:28:18Z</time>
      </trkpt>
      <trkpt lat="45.92203" lon="6.48924">
        <ele>1459.9</ele>
        <time>2015-03-28T07:28:48Z</time>
      </trkpt>
      <trkpt lat="45.92227" lon="6.48954">
        <ele>1462.3</ele>
        <time>2015-03-28T07:29:18Z</time>
      </trkpt>
      <trkpt lat="45.92241" lon="6.48983">
        <ele>1465.67</ele>
        <time>2015-03-28T07:29:48Z</time>
      </trkpt>
      <trkpt lat="45.92263" lon="6.49012">
        <ele>1469.03</ele>
        <time>2015-03-28T07:30:18Z</time>
      </trkpt>
      <trkpt lat="45.92281" lon="6.49041">
        <ele>1472.88</ele>
        <time>2015-03-28T07:30:48Z</time>
      </trkpt>
      <trkpt lat="45.92302" lon="6.49056">
        <ele>1476.72</ele>
        <time>2015-03-28T07:31:18Z</time>
      </trkpt>
      <trkpt lat="45.9233" lon="6.49066">
        <ele>1481.05</ele>
        <time>2015-03-28T07:31:48Z</time>
      </trkpt>
      <trkpt lat="45.92353" lon="6.49094">
        <ele>1485.37</ele>
        <time>2015-03-28T07:32:18Z</time>
      </trkpt>
      <trkpt lat="45.9238" lon="6.49108">
        <ele>1489.22</ele>
        <time>2015-03-28T07:32:48Z</time>
      </trkpt>
      <trkpt lat="45.92408" lon="6.49106">
        <ele>1494.51</ele>
        <time>2015-03-28T07:33:18Z</time>
      </trkpt>
      <trkpt lat="45.92435" lon="6.49107">
        <ele>1498.83</ele>
        <time>2015-03-28T07:33:48Z</time>
      </trkpt>
      <trkpt lat="45.92453" lon="6.49134">
        <ele>1502.68</ele>
        <time>2015-03-28T07:34:18Z</time>
      </trkpt>
      <trkpt lat="45.92474" lon="6.49166">
        <ele>1502.68</ele>
        <time>2015-03-28T07:34:48Z</time>
      </trkpt>
      <trkpt lat="45.92502" lon="6.4919">
        <ele>1500.27</ele>
        <time>2015-03-28T07:35:18Z</time>
      </trkpt>
      <trkpt lat="45.92533" lon="6.49205">
        <ele>1499.79</ele>
        <time>2015-03-28T07:35:48Z</time>
      </trkpt>
      <trkpt lat="45.92563" lon="6.49208">
        <ele>1496.91</ele>
        <time>2015-03-28T07:36:18Z</time>
      </trkpt>
      <trkpt lat="45.92582" lon="6.49213">
        <ele>1496.43</ele>
        <time>2015-03-28T07:36:48Z</time>
      </trkpt>
      <trkpt lat="45.92607" lon="6.49222">
        <ele>1494.99</ele>
        <time>2015-03-28T07:37:18Z</time>
      </trkpt>
      <trkpt lat="45.92616" lon="6.49226">
        <ele>1494.03</ele>
        <time>2015-03-28T07:37:48Z</time>
      </trkpt>
      <trkpt lat="45.9262" lon="6.49227">
        <ele>1493.55</ele>
        <time>2015-03-28T07:38:18Z</time>
      </trkpt>
      <trkpt lat="45.9265" lon="6.49253">
        <ele>1491.62</ele>
        <time>2015-03-28T07:38:48Z</time>
      </trkpt>
      <trkpt lat="45.92688" lon="6.49276">
        <ele>1490.66</ele>
        <time>2015-03-28T07:39:18Z</time>
      </trkpt>
      <trkpt lat="45.9271" lon="6.49312">
        <ele>1492.58</ele>
        <time>2015-03-28T07:39:48Z</time>
      </trkpt>
      <trkpt lat="45.92719" lon="6.49358">
        <ele>1496.43</ele>
        <time>2015-03-28T07:40:18Z</time>
      </trkpt>
      <trkpt lat="45.9273" lon="6.49389">
        <ele>1497.39</ele>
        <time>2015-03-28T07:40:48Z</time>
      </trkpt>
      <trkpt lat="45.92743" lon="6.49433">
        <ele>1498.83</ele>
        <time>2015-03-28T07:41:18Z</time>
      </trkpt>
      <trkpt lat="45.92732" lon="6.49455">
        <ele>1501.24</ele>
        <time>2015-03-28T07:41:48Z</time>
      </trkpt>
      <trkpt lat="45.92731" lon="6.49459">
        <ele>1501.24</ele>
        <time>2015-03-28T07:42:18Z</time>
      </trkpt>
      <trkpt lat="45.92726" lon="6.49458">
        <ele>1502.2</ele>
        <time>2015-03-28T07:42:48Z</time>
      </trkpt>
      <trkpt lat="45.9273" lon="6.49457">
        <ele>1501.72</ele>
        <time>2015-03-28T07:43:18Z</time>
      </trkpt>
      <trkpt lat="45.92718" lon="6.49452">
        <ele>1503.16</ele>
        <time>2015-03-28T07:43:48Z</time>
      </trkpt>
      <trkpt lat="45.92691" lon="6.49442">
        <ele>1502.68</ele>
        <time>2015-03-28T07:44:18Z</time>
      </trkpt>
      <trkpt lat="45.92669" lon="6.49456">
        <ele>1501.24</ele>
        <time>2015-03-28T07:44:48Z</time>
      </trkpt>
      <trkpt lat="45.92663" lon="6.49467">
        <ele>1501.72</ele>
        <time>2015-03-28T07:45:18Z</time>
      </trkpt>
      <trkpt lat="45.92656" lon="6.49479">
        <ele>1501.24</ele>
        <time>2015-03-28T07:45:48Z</time>
      </trkpt>
      <trkpt lat="45.92646" lon="6.49511">
        <ele>1499.79</ele>
        <time>2015-03-28T07:46:18Z</time>
      </trkpt>
      <trkpt lat="45.92643" lon="6.49538">
        <ele>1499.79</ele>
        <time>2015-03-28T07:46:48Z</time>
      </trkpt>
      <trkpt lat="45.92638" lon="6.49575">
        <ele>1502.2</ele>
        <time>2015-03-28T07:47:18Z</time>
      </trkpt>
      <trkpt lat="45.92642" lon="6.49604">
        <ele>1503.64</ele>
        <time>2015-03-28T07:47:48Z</time>
      </trkpt>
      <trkpt lat="45.92637" lon="6.49643">
        <ele>1506.52</ele>
        <time>2015-03-28T07:48:18Z</time>
      </trkpt>
      <trkpt lat="45.92632" lon="6.4966">
        <ele>1508.93</ele>
        <time>2015-03-28T07:48:48Z</time>
      </trkpt>
      <trkpt lat="45.92629" lon="6.49674">
        <ele>1512.77</ele>
        <time>2015-03-28T07:49:18Z</time>
      </trkpt>
      <trkpt lat="45.92636" lon="6.49706">
        <ele>1516.14</ele>
        <time>2015-03-28T07:49:48Z</time>
      </trkpt>
      <trkpt lat="45.92653" lon="6.49735">
        <ele>1519.02</ele>
        <time>2015-03-28T07:50:18Z</time>
      </trkpt>
      <trkpt lat="45.92662" lon="6.49767">
        <ele>1523.83</ele>
        <time>2015-03-28T07:50:48Z</time>
      </trkpt>
      <trkpt lat="45.92668" lon="6.49796">
        <ele>1528.63</ele>
        <time>2015-03-28T07:51:18Z</time>
      </trkpt>
      <trkpt lat="45.92674" lon="6.49824">
        <ele>1533.92</ele>
        <time>2015-03-28T07:51:48Z</time>
      </trkpt>
      <trkpt lat="45.92676" lon="6.49847">
        <ele>1537.77</ele>
        <time>2015-03-28T07:52:18Z</time>
      </trkpt>
      <trkpt lat="45.92676" lon="6.49855">
        <ele>1538.73</ele>
        <time>2015-03-28T07:52:48Z</time>
      </trkpt>
      <trkpt lat="45.92674" lon="6.49867">
        <ele>1542.57</ele>
        <time>2015-03-28T07:53:18Z</time>
      </trkpt>
      <trkpt lat="45.92672" lon="6.49885">
        <ele>1544.98</ele>
        <time>2015-03-28T07:53:48Z</time>
      </trkpt>
      <trkpt lat="45.92671" lon="6.499">
        <ele>1547.38</ele>
        <time>2015-03-28T07:54:18Z</time>
      </trkpt>
      <trkpt lat="45.92671" lon="6.49909">
        <ele>1549.78</ele>
        <time>2015-03-28T07:54:48Z</time>
      </trkpt>
      <trkpt lat="45.92669" lon="6.49908">
        <ele>1550.26</ele>
        <time>2015-03-28T07:55:18Z</time>
      </trkpt>
      <trkpt lat="45.92672" lon="6.49913">
        <ele>1550.74</ele>
        <time>2015-03-28T07:55:48Z</time>
      </trkpt>
      <trkpt lat="45.92669" lon="6.49919">
        <ele>1551.71</ele>
        <time>2015-03-28T07:56:18Z</time>
      </trkpt>
      <trkpt lat="45.92669" lon="6.49943">
        <ele>1554.11</ele>
        <time>2015-03-28T07:56:48Z</time>
      </trkpt>
      <trkpt lat="45.92671" lon="6.49967">
        <ele>1558.92</ele>
        <time>2015-03-28T07:57:18Z</time>
      </trkpt>
      <trkpt lat="45.92675" lon="6.49995">
        <ele>1561.8</ele>
        <time>2015-03-28T07:57:48Z</time>
      </trkpt>
      <trkpt lat="45.9268" lon="6.50017">
        <ele>1562.76</ele>
        <time>2015-03-28T07:58:18Z</time>
      </trkpt>
      <trkpt lat="45.92677" lon="6.50016">
        <ele>1560.84</ele>
        <time>2015-03-28T07:58:48Z</time>
      </trkpt>
      <trkpt lat="45.92677" lon="6.50018">
        <ele>1561.8</ele>
        <time>2015-03-28T07:59:18Z</time>
      </trkpt>
      <trkpt lat="45.92681" lon="6.50018">
        <ele>1562.28</ele>
        <time>2015-03-28T07:59:48Z</time>
      </trkpt>
      <trkpt lat="45.92678" lon="6.50018">
        <ele>1562.28</ele>
        <time>2015-03-28T08:00:18Z</time>
      </trkpt>
      <trkpt lat="45.9268" lon="6.50017">
        <ele>1563.24</ele>
        <time>2015-03-28T08:00:48Z</time>
      </trkpt>
      <trkpt lat="45.92679" lon="6.50022">
        <ele>1562.76</ele>
        <time>2015-03-28T08:01:18Z</time>
      </trkpt>
      <trkpt lat="45.92679" lon="6.50021">
        <ele>1563.72</ele>
        <time>2015-03-28T08:01:48Z</time>
      </trkpt>
      <trkpt lat="45.92682" lon="6.50033">
        <ele>1565.64</ele>
        <time>2015-03-28T08:02:18Z</time>
      </trkpt>
      <trkpt lat="45.92678" lon="6.50036">
        <ele>1568.53</ele>
        <time>2015-03-28T08:02:48Z</time>
      </trkpt>
      <trkpt lat="45.92683" lon="6.5006">
        <ele>1574.3</ele>
        <time>2015-03-28T08:03:18Z</time>
      </trkpt>
      <trkpt lat="45.92687" lon="6.5007">
        <ele>1577.18</ele>
        <time>2015-03-28T08:03:48Z</time>
      </trkpt>
      <trkpt lat="45.92685" lon="6.50073">
        <ele>1577.18</ele>
        <time>2015-03-28T08:04:18Z</time>
      </trkpt>
      <trkpt lat="45.92688" lon="6.50076">
        <ele>1579.1</ele>
        <time>2015-03-28T08:04:48Z</time>
      </trkpt>
      <trkpt lat="45.92698" lon="6.50104">
        <ele>1584.39</ele>
        <time>2015-03-28T08:05:18Z</time>
      </trkpt>
      <trkpt lat="45.92692" lon="6.5012">
        <ele>1589.2</ele>
        <time>2015-03-28T08:05:48Z</time>
      </trkpt>
      <trkpt lat="45.92695" lon="6.50134">
        <ele>1594</ele>
        <time>2015-03-28T08:06:18Z</time>
      </trkpt>
      <trkpt lat="45.92702" lon="6.50148">
        <ele>1597.37</ele>
        <time>2015-03-28T08:06:48Z</time>
      </trkpt>
      <trkpt lat="45.92711" lon="6.50169">
        <ele>1601.69</ele>
        <time>2015-03-28T08:07:18Z</time>
      </trkpt>
      <trkpt lat="45.92705" lon="6.5019">
        <ele>1605.54</ele>
        <time>2015-03-28T08:07:48Z</time>
      </trkpt>
      <trkpt lat="45.92706" lon="6.50206">
        <ele>1612.27</ele>
        <time>2015-03-28T08:08:18Z</time>
      </trkpt>
      <trkpt lat="45.92708" lon="6.50218">
        <ele>1614.67</ele>
        <time>2015-03-28T08:08:48Z</time>
      </trkpt>
      <trkpt lat="45.92706" lon="6.50233">
        <ele>1618.04</ele>
        <time>2015-03-28T08:09:18Z</time>
      </trkpt>
      <trkpt lat="45.92693" lon="6.50233">
        <ele>1623.32</ele>
        <time>2015-03-28T08:09:48Z</time>
      </trkpt>
      <trkpt lat="45.92695" lon="6.50237">
        <ele>1627.17</ele>
        <time>2015-03-28T08:10:18Z</time>
      </trkpt>
      <trkpt lat="45.92696" lon="6.50248">
        <ele>1630.05</ele>
        <time>2015-03-28T08:10:48Z</time>
      </trkpt>
      <trkpt lat="45.92692" lon="6.50247">
        <ele>1630.05</ele>
        <time>2015-03-28T08:11:18Z</time>
      </trkpt>
      <trkpt lat="45.92693" lon="6.50247">
        <ele>1631.01</ele>
        <time>2015-03-28T08:11:48Z</time>
      </trkpt>
      <trkpt lat="45.92692" lon="6.50249">
        <ele>1630.53</ele>
        <time>2015-03-28T08:12:18Z</time>
      </trkpt>
      <trkpt lat="45.9269" lon="6.5025">
        <ele>1630.53</ele>
        <time>2015-03-28T08:12:48Z</time>
      </trkpt>
      <trkpt lat="45.92685" lon="6.50246">
        <ele>1632.46</ele>
        <time>2015-03-28T08:13:18Z</time>
      </trkpt>
      <trkpt lat="45.92692" lon="6.50251">
        <ele>1633.9</ele>
        <time>2015-03-28T08:13:48Z</time>
      </trkpt>
      <trkpt lat="45.92701" lon="6.5026">
        <ele>1637.26</ele>
        <time>2015-03-28T08:14:18Z</time>
      </trkpt>
      <trkpt lat="45.92702" lon="6.50264">
        <ele>1638.22</ele>
        <time>2015-03-28T08:14:48Z</time>
      </trkpt>
      <trkpt lat="45.92704" lon="6.50268">
        <ele>1639.19</ele>
        <time>2015-03-28T08:15:18Z</time>
      </trkpt>
      <trkpt lat="45.92704" lon="6.50273">
        <ele>1640.63</ele>
        <time>2015-03-28T08:15:48Z</time>
      </trkpt>
      <trkpt lat="45.92703" lon="6.50273">
        <ele>1641.11</ele>
        <time>2015-03-28T08:16:18Z</time>
      </trkpt>
      <trkpt lat="45.92705" lon="6.50275">
        <ele>1642.55</ele>
        <time>2015-03-28T08:16:48Z</time>
      </trkpt>
      <trkpt lat="45.92706" lon="6.50275">
        <ele>1643.51</ele>
        <time>2015-03-28T08:17:18Z</time>
      </trkpt>
      <trkpt lat="45.92708" lon="6.50277">
        <ele>1643.99</ele>
        <time>2015-03-28T08:17:48Z</time>
      </trkpt>
      <trkpt lat="45.92717" lon="6.50292">
        <ele>1651.68</ele>
        <time>2015-03-28T08:18:18Z</time>
      </trkpt>
      <trkpt lat="45.9272" lon="6.5031">
        <ele>1657.45</ele>
        <time>2015-03-28T08:18:48Z</time>
      </trkpt>
      <trkpt lat="45.9273" lon="6.50322">
        <ele>1662.74</ele>
        <time>2015-03-28T08:19:18Z</time>
      </trkpt>
      <trkpt lat="45.92729" lon="6.50336">
        <ele>1667.06</ele>
        <time>2015-03-28T08:19:48Z</time>
      </trkpt>
      <trkpt lat="45.92717" lon="6.50346">
        <ele>1669.47</ele>
        <time>2015-03-28T08:20:18Z</time>
      </trkpt>
      <trkpt lat="45.92721" lon="6.50361">
        <ele>1675.23</ele>
        <time>2015-03-28T08:20:48Z</time>
      </trkpt>
      <trkpt lat="45.92732" lon="6.50381">
        <ele>1679.08</ele>
        <time>2015-03-28T08:21:18Z</time>
      </trkpt>
      <trkpt lat="45.92722" lon="6.50385">
        <ele>1683.89</ele>
        <time>2015-03-28T08:21:48Z</time>
      </trkpt>
      <trkpt lat="45.92718" lon="6.50386">
        <ele>1685.81</ele>
        <time>2015-03-28T08:22:18Z</time>
      </trkpt>
      <trkpt lat="45.92727" lon="6.50404">
        <ele>1689.65</ele>
        <time>2015-03-28T08:22:48Z</time>
      </trkpt>
      <trkpt lat="45.92729" lon="6.50416">
        <ele>1692.06</ele>
        <time>2015-03-28T08:23:18Z</time>
      </trkpt>
      <trkpt lat="45.92732" lon="6.50423">
        <ele>1692.06</ele>
        <time>2015-03-28T08:23:48Z</time>
      </trkpt>
      <trkpt lat="45.92734" lon="6.50423">
        <ele>1691.1</ele>
        <time>2015-03-28T08:24:18Z</time>
      </trkpt>
      <trkpt lat="45.9273" lon="6.50421">
        <ele>1691.1</ele>
        <time>2015-03-28T08:24:48Z</time>
      </trkpt>
      <trkpt lat="45.92732" lon="6.50424">
        <ele>1691.1</ele>
        <time>2015-03-28T08:25:18Z</time>
      </trkpt>
      <trkpt lat="45.92729" lon="6.50421">
        <ele>1691.1</ele>
        <time>2015-03-28T08:25:48Z</time>
      </trkpt>
      <trkpt lat="45.9273" lon="6.50424">
        <ele>1691.1</ele>
        <time>2015-03-28T08:26:18Z</time>
      </trkpt>
      <trkpt lat="45.92727" lon="6.50424">
        <ele>1688.21</ele>
        <time>2015-03-28T08:26:32Z</time>
      </trkpt>
      <trkpt lat="45.9273" lon="6.50424">
        <ele>1686.29</ele>
        <time>2015-03-28T08:27:05Z</time>
      </trkpt>
      <trkpt lat="45.92729" lon="6.50428">
        <ele>1686.77</ele>
        <time>2015-03-28T08:27:35Z</time>
      </trkpt>
      <trkpt lat="45.92728" lon="6.50425">
        <ele>1688.21</ele>
        <time>2015-03-28T08:28:05Z</time>
      </trkpt>
      <trkpt lat="45.92728" lon="6.50427">
        <ele>1687.73</ele>
        <time>2015-03-28T08:28:35Z</time>
      </trkpt>
      <trkpt lat="45.92731" lon="6.50428">
        <ele>1688.21</ele>
        <time>2015-03-28T08:29:05Z</time>
      </trkpt>
      <trkpt lat="45.92736" lon="6.50429">
        <ele>1687.73</ele>
        <time>2015-03-28T08:29:35Z</time>
      </trkpt>
      <trkpt lat="45.92733" lon="6.50432">
        <ele>1688.21</ele>
        <time>2015-03-28T08:30:05Z</time>
      </trkpt>
      <trkpt lat="45.92731" lon="6.50426">
        <ele>1688.69</ele>
        <time>2015-03-28T08:30:35Z</time>
      </trkpt>
      <trkpt lat="45.9273" lon="6.50424">
        <ele>1688.21</ele>
        <time>2015-03-28T08:31:05Z</time>
      </trkpt>
      <trkpt lat="45.92703" lon="6.50428">
        <ele>1694.46</ele>
        <time>2015-03-28T08:31:35Z</time>
      </trkpt>
      <trkpt lat="45.92687" lon="6.50426">
        <ele>1699.75</ele>
        <time>2015-03-28T08:32:05Z</time>
      </trkpt>
      <trkpt lat="45.9267" lon="6.50422">
        <ele>1706</ele>
        <time>2015-03-28T08:32:35Z</time>
      </trkpt>
      <trkpt lat="45.9266" lon="6.50417">
        <ele>1710.8</ele>
        <time>2015-03-28T08:33:05Z</time>
      </trkpt>
      <trkpt lat="45.92645" lon="6.5042">
        <ele>1716.09</ele>
        <time>2015-03-28T08:33:35Z</time>
      </trkpt>
      <trkpt lat="45.92626" lon="6.50416">
        <ele>1723.3</ele>
        <time>2015-03-28T08:34:05Z</time>
      </trkpt>
      <trkpt lat="45.92609" lon="6.50417">
        <ele>1727.15</ele>
        <time>2015-03-28T08:34:35Z</time>
      </trkpt>
      <trkpt lat="45.92598" lon="6.50416">
        <ele>1732.43</ele>
        <time>2015-03-28T08:35:05Z</time>
      </trkpt>
      <trkpt lat="45.92584" lon="6.50415">
        <ele>1737.24</ele>
        <time>2015-03-28T08:35:35Z</time>
      </trkpt>
      <trkpt lat="45.9257" lon="6.50414">
        <ele>1742.53</ele>
        <time>2015-03-28T08:36:05Z</time>
      </trkpt>
      <trkpt lat="45.92558" lon="6.50406">
        <ele>1746.85</ele>
        <time>2015-03-28T08:36:35Z</time>
      </trkpt>
      <trkpt lat="45.92558" lon="6.50425">
        <ele>1751.18</ele>
        <time>2015-03-28T08:37:05Z</time>
      </trkpt>
      <trkpt lat="45.92559" lon="6.50441">
        <ele>1755.99</ele>
        <time>2015-03-28T08:37:35Z</time>
      </trkpt>
      <trkpt lat="45.92561" lon="6.50464">
        <ele>1760.31</ele>
        <time>2015-03-28T08:38:05Z</time>
      </trkpt>
      <trkpt lat="45.92563" lon="6.50485">
        <ele>1765.6</ele>
        <time>2015-03-28T08:38:35Z</time>
      </trkpt>
      <trkpt lat="45.92568" lon="6.50509">
        <ele>1769.92</ele>
        <time>2015-03-28T08:39:05Z</time>
      </trkpt>
      <trkpt lat="45.92568" lon="6.5052">
        <ele>1773.77</ele>
        <time>2015-03-28T08:39:35Z</time>
      </trkpt>
      <trkpt lat="45.92554" lon="6.50514">
        <ele>1779.54</ele>
        <time>2015-03-28T08:40:05Z</time>
      </trkpt>
      <trkpt lat="45.9254" lon="6.50507">
        <ele>1784.34</ele>
        <time>2015-03-28T08:40:35Z</time>
      </trkpt>
      <trkpt lat="45.92528" lon="6.50495">
        <ele>1788.67</ele>
        <time>2015-03-28T08:41:05Z</time>
      </trkpt>
      <trkpt lat="45.92514" lon="6.5048">
        <ele>1793</ele>
        <time>2015-03-28T08:41:35Z</time>
      </trkpt>
      <trkpt lat="45.92502" lon="6.50479">
        <ele>1799.24</ele>
        <time>2015-03-28T08:42:05Z</time>
      </trkpt>
      <trkpt lat="45.92491" lon="6.50506">
        <ele>1805.49</ele>
        <time>2015-03-28T08:42:35Z</time>
      </trkpt>
      <trkpt lat="45.92481" lon="6.50523">
        <ele>1810.3</ele>
        <time>2015-03-28T08:43:05Z</time>
      </trkpt>
      <trkpt lat="45.92467" lon="6.50526">
        <ele>1816.55</ele>
        <time>2015-03-28T08:43:35Z</time>
      </trkpt>
      <trkpt lat="45.92452" lon="6.50539">
        <ele>1820.87</ele>
        <time>2015-03-28T08:44:05Z</time>
      </trkpt>
      <trkpt lat="45.92446" lon="6.50559">
        <ele>1826.16</ele>
        <time>2015-03-28T08:44:35Z</time>
      </trkpt>
      <trkpt lat="45.92447" lon="6.5058">
        <ele>1831.93</ele>
        <time>2015-03-28T08:45:05Z</time>
      </trkpt>
      <trkpt lat="45.92433" lon="6.50586">
        <ele>1838.18</ele>
        <time>2015-03-28T08:45:35Z</time>
      </trkpt>
      <trkpt lat="45.9242" lon="6.50594">
        <ele>1842.5</ele>
        <time>2015-03-28T08:46:05Z</time>
      </trkpt>
      <trkpt lat="45.92409" lon="6.50611">
        <ele>1846.35</ele>
        <time>2015-03-28T08:46:35Z</time>
      </trkpt>
      <trkpt lat="45.92408" lon="6.50635">
        <ele>1851.16</ele>
        <time>2015-03-28T08:47:05Z</time>
      </trkpt>
      <trkpt lat="45.92404" lon="6.50658">
        <ele>1856.44</ele>
        <time>2015-03-28T08:47:35Z</time>
      </trkpt>
      <trkpt lat="45.92404" lon="6.5068">
        <ele>1861.25</ele>
        <time>2015-03-28T08:48:05Z</time>
      </trkpt>
      <trkpt lat="45.92403" lon="6.50701">
        <ele>1863.65</ele>
        <time>2015-03-28T08:48:35Z</time>
      </trkpt>
      <trkpt lat="45.92394" lon="6.50709">
        <ele>1868.94</ele>
        <time>2015-03-28T08:49:05Z</time>
      </trkpt>
      <trkpt lat="45.92385" lon="6.5071">
        <ele>1873.27</ele>
        <time>2015-03-28T08:49:35Z</time>
      </trkpt>
      <trkpt lat="45.92379" lon="6.50724">
        <ele>1878.07</ele>
        <time>2015-03-28T08:50:05Z</time>
      </trkpt>
      <trkpt lat="45.92365" lon="6.50713">
        <ele>1882.4</ele>
        <time>2015-03-28T08:50:35Z</time>
      </trkpt>
      <trkpt lat="45.92362" lon="6.50724">
        <ele>1887.21</ele>
        <time>2015-03-28T08:51:05Z</time>
      </trkpt>
      <trkpt lat="45.92353" lon="6.50732">
        <ele>1891.05</ele>
        <time>2015-03-28T08:51:35Z</time>
      </trkpt>
      <trkpt lat="45.92343" lon="6.50724">
        <ele>1896.82</ele>
        <time>2015-03-28T08:52:05Z</time>
      </trkpt>
      <trkpt lat="45.92338" lon="6.50739">
        <ele>1901.63</ele>
        <time>2015-03-28T08:52:35Z</time>
      </trkpt>
      <trkpt lat="45.92323" lon="6.50729">
        <ele>1906.91</ele>
        <time>2015-03-28T08:53:05Z</time>
      </trkpt>
      <trkpt lat="45.92314" lon="6.5072">
        <ele>1911.24</ele>
        <time>2015-03-28T08:53:35Z</time>
      </trkpt>
      <trkpt lat="45.92312" lon="6.50723">
        <ele>1914.12</ele>
        <time>2015-03-28T08:54:05Z</time>
      </trkpt>
      <trkpt lat="45.92315" lon="6.50745">
        <ele>1919.89</ele>
        <time>2015-03-28T08:54:35Z</time>
      </trkpt>
      <trkpt lat="45.92307" lon="6.50758">
        <ele>1924.7</ele>
        <time>2015-03-28T08:55:05Z</time>
      </trkpt>
      <trkpt lat="45.92292" lon="6.50749">
        <ele>1929.98</ele>
        <time>2015-03-28T08:55:35Z</time>
      </trkpt>
      <trkpt lat="45.9228" lon="6.5074">
        <ele>1934.31</ele>
        <time>2015-03-28T08:56:05Z</time>
      </trkpt>
      <trkpt lat="45.9228" lon="6.50761">
        <ele>1940.56</ele>
        <time>2015-03-28T08:56:35Z</time>
      </trkpt>
      <trkpt lat="45.92282" lon="6.50785">
        <ele>1943.92</ele>
        <time>2015-03-28T08:57:05Z</time>
      </trkpt>
      <trkpt lat="45.92287" lon="6.50807">
        <ele>1949.21</ele>
        <time>2015-03-28T08:57:35Z</time>
      </trkpt>
      <trkpt lat="45.92292" lon="6.50826">
        <ele>1953.54</ele>
        <time>2015-03-28T08:58:05Z</time>
      </trkpt>
      <trkpt lat="45.92295" lon="6.50849">
        <ele>1959.3</ele>
        <time>2015-03-28T08:58:35Z</time>
      </trkpt>
      <trkpt lat="45.92294" lon="6.50873">
        <ele>1965.07</ele>
        <time>2015-03-28T08:59:05Z</time>
      </trkpt>
      <trkpt lat="45.92279" lon="6.50882">
        <ele>1969.88</ele>
        <time>2015-03-28T08:59:35Z</time>
      </trkpt>
      <trkpt lat="45.92266" lon="6.50878">
        <ele>1974.69</ele>
        <time>2015-03-28T09:00:05Z</time>
      </trkpt>
      <trkpt lat="45.92253" lon="6.50871">
        <ele>1979.49</ele>
        <time>2015-03-28T09:00:35Z</time>
      </trkpt>
      <trkpt lat="45.92246" lon="6.50868">
        <ele>1984.3</ele>
        <time>2015-03-28T09:01:05Z</time>
      </trkpt>
      <trkpt lat="45.92246" lon="6.50889">
        <ele>1987.66</ele>
        <time>2015-03-28T09:01:35Z</time>
      </trkpt>
      <trkpt lat="45.92243" lon="6.5091">
        <ele>1992.47</ele>
        <time>2015-03-28T09:02:05Z</time>
      </trkpt>
      <trkpt lat="45.92233" lon="6.50924">
        <ele>1997.76</ele>
        <time>2015-03-28T09:02:35Z</time>
      </trkpt>
      <trkpt lat="45.92215" lon="6.50915">
        <ele>2004.01</ele>
        <time>2015-03-28T09:03:05Z</time>
      </trkpt>
      <trkpt lat="45.92209" lon="6.50918">
        <ele>2006.89</ele>
        <time>2015-03-28T09:03:35Z</time>
      </trkpt>
      <trkpt lat="45.92206" lon="6.50936">
        <ele>2011.7</ele>
        <time>2015-03-28T09:04:05Z</time>
      </trkpt>
      <trkpt lat="45.92198" lon="6.50954">
        <ele>2016.5</ele>
        <time>2015-03-28T09:04:35Z</time>
      </trkpt>
      <trkpt lat="45.92186" lon="6.5094">
        <ele>2021.79</ele>
        <time>2015-03-28T09:05:05Z</time>
      </trkpt>
      <trkpt lat="45.92178" lon="6.50927">
        <ele>2026.12</ele>
        <time>2015-03-28T09:05:35Z</time>
      </trkpt>
      <trkpt lat="45.92167" lon="6.50909">
        <ele>2030.92</ele>
        <time>2015-03-28T09:06:05Z</time>
      </trkpt>
      <trkpt lat="45.92163" lon="6.50896">
        <ele>2033.81</ele>
        <time>2015-03-28T09:06:35Z</time>
      </trkpt>
      <trkpt lat="45.92159" lon="6.50917">
        <ele>2038.61</ele>
        <time>2015-03-28T09:07:05Z</time>
      </trkpt>
      <trkpt lat="45.92153" lon="6.50937">
        <ele>2043.42</ele>
        <time>2015-03-28T09:07:35Z</time>
      </trkpt>
      <trkpt lat="45.92143" lon="6.50958">
        <ele>2047.75</ele>
        <time>2015-03-28T09:08:05Z</time>
      </trkpt>
      <trkpt lat="45.92135" lon="6.50962">
        <ele>2052.07</ele>
        <time>2015-03-28T09:08:35Z</time>
      </trkpt>
      <trkpt lat="45.92124" lon="6.50946">
        <ele>2056.4</ele>
        <time>2015-03-28T09:09:05Z</time>
      </trkpt>
      <trkpt lat="45.92119" lon="6.50932">
        <ele>2060.72</ele>
        <time>2015-03-28T09:09:35Z</time>
      </trkpt>
      <trkpt lat="45.92119" lon="6.50924">
        <ele>2064.57</ele>
        <time>2015-03-28T09:10:05Z</time>
      </trkpt>
      <trkpt lat="45.92112" lon="6.50935">
        <ele>2068.89</ele>
        <time>2015-03-28T09:10:35Z</time>
      </trkpt>
      <trkpt lat="45.92107" lon="6.50918">
        <ele>2071.3</ele>
        <time>2015-03-28T09:11:05Z</time>
      </trkpt>
      <trkpt lat="45.92102" lon="6.50936">
        <ele>2077.07</ele>
        <time>2015-03-28T09:11:35Z</time>
      </trkpt>
      <trkpt lat="45.92093" lon="6.50956">
        <ele>2081.87</ele>
        <time>2015-03-28T09:12:05Z</time>
      </trkpt>
      <trkpt lat="45.92086" lon="6.50978">
        <ele>2087.16</ele>
        <time>2015-03-28T09:12:35Z</time>
      </trkpt>
      <trkpt lat="45.92079" lon="6.50999">
        <ele>2092.45</ele>
        <time>2015-03-28T09:13:05Z</time>
      </trkpt>
      <trkpt lat="45.92064" lon="6.51007">
        <ele>2097.25</ele>
        <time>2015-03-28T09:13:35Z</time>
      </trkpt>
      <trkpt lat="45.92051" lon="6.50997">
        <ele>2102.06</ele>
        <time>2015-03-28T09:14:05Z</time>
      </trkpt>
      <trkpt lat="45.92038" lon="6.50999">
        <ele>2107.83</ele>
        <time>2015-03-28T09:14:35Z</time>
      </trkpt>
      <trkpt lat="45.92029" lon="6.51015">
        <ele>2112.63</ele>
        <time>2015-03-28T09:15:05Z</time>
      </trkpt>
      <trkpt lat="45.92024" lon="6.51038">
        <ele>2116.96</ele>
        <time>2015-03-28T09:15:35Z</time>
      </trkpt>
      <trkpt lat="45.9202" lon="6.51053">
        <ele>2121.29</ele>
        <time>2015-03-28T09:16:05Z</time>
      </trkpt>
      <trkpt lat="45.92007" lon="6.5104">
        <ele>2126.57</ele>
        <time>2015-03-28T09:16:35Z</time>
      </trkpt>
      <trkpt lat="45.92003" lon="6.51028">
        <ele>2129.94</ele>
        <time>2015-03-28T09:17:05Z</time>
      </trkpt>
      <trkpt lat="45.92003" lon="6.51048">
        <ele>2134.26</ele>
        <time>2015-03-28T09:17:35Z</time>
      </trkpt>
      <trkpt lat="45.91993" lon="6.51058">
        <ele>2138.59</ele>
        <time>2015-03-28T09:18:05Z</time>
      </trkpt>
      <trkpt lat="45.91982" lon="6.51048">
        <ele>2143.4</ele>
        <time>2015-03-28T09:18:35Z</time>
      </trkpt>
      <trkpt lat="45.91979" lon="6.51057">
        <ele>2147.24</ele>
        <time>2015-03-28T09:19:05Z</time>
      </trkpt>
      <trkpt lat="45.91976" lon="6.51073">
        <ele>2151.57</ele>
        <time>2015-03-28T09:19:35Z</time>
      </trkpt>
      <trkpt lat="45.91981" lon="6.51097">
        <ele>2157.82</ele>
        <time>2015-03-28T09:20:05Z</time>
      </trkpt>
      <trkpt lat="45.91986" lon="6.51118">
        <ele>2160.7</ele>
        <time>2015-03-28T09:20:35Z</time>
      </trkpt>
      <trkpt lat="45.91989" lon="6.51126">
        <ele>2160.7</ele>
        <time>2015-03-28T09:21:05Z</time>
      </trkpt>
      <trkpt lat="45.91983" lon="6.5112">
        <ele>2159.74</ele>
        <time>2015-03-28T09:21:35Z</time>
      </trkpt>
      <trkpt lat="45.91983" lon="6.51125">
        <ele>2160.7</ele>
        <time>2015-03-28T09:22:05Z</time>
      </trkpt>
      <trkpt lat="45.91986" lon="6.51128">
        <ele>2160.22</ele>
        <time>2015-03-28T09:22:35Z</time>
      </trkpt>
      <trkpt lat="45.91983" lon="6.51123">
        <ele>2160.7</ele>
        <time>2015-03-28T09:23:05Z</time>
      </trkpt>
      <trkpt lat="45.9199" lon="6.51128">
        <ele>2160.7</ele>
        <time>2015-03-28T09:23:35Z</time>
      </trkpt>
      <trkpt lat="45.91988" lon="6.51126">
        <ele>2160.22</ele>
        <time>2015-03-28T09:24:05Z</time>
      </trkpt>
      <trkpt lat="45.9199" lon="6.51134">
        <ele>2160.7</ele>
        <time>2015-03-28T09:24:35Z</time>
      </trkpt>
      <trkpt lat="45.91993" lon="6.51133">
        <ele>2160.7</ele>
        <time>2015-03-28T09:25:05Z</time>
      </trkpt>
      <trkpt lat="45.91993" lon="6.5113">
        <ele>2160.7</ele>
        <time>2015-03-28T09:25:35Z</time>
      </trkpt>
      <trkpt lat="45.91993" lon="6.5113">
        <ele>2160.7</ele>
        <time>2015-03-28T09:26:05Z</time>
      </trkpt>
      <trkpt lat="45.91995" lon="6.51134">
        <ele>2161.18</ele>
        <time>2015-03-28T09:26:35Z</time>
      </trkpt>
      <trkpt lat="45.91998" lon="6.51132">
        <ele>2159.74</ele>
        <time>2015-03-28T09:27:05Z</time>
      </trkpt>
      <trkpt lat="45.92" lon="6.51134">
        <ele>2160.22</ele>
        <time>2015-03-28T09:27:35Z</time>
      </trkpt>
      <trkpt lat="45.91994" lon="6.51129">
        <ele>2160.22</ele>
        <time>2015-03-28T09:28:05Z</time>
      </trkpt>
      <trkpt lat="45.91989" lon="6.51129">
        <ele>2160.22</ele>
        <time>2015-03-28T09:28:35Z</time>
      </trkpt>
      <trkpt lat="45.91984" lon="6.51131">
        <ele>2159.26</ele>
        <time>2015-03-28T09:29:05Z</time>
      </trkpt>
      <trkpt lat="45.91987" lon="6.51123">
        <ele>2159.74</ele>
        <time>2015-03-28T09:29:35Z</time>
      </trkpt>
      <trkpt lat="45.91984" lon="6.51127">
        <ele>2159.74</ele>
        <time>2015-03-28T09:30:05Z</time>
      </trkpt>
      <trkpt lat="45.91984" lon="6.51129">
        <ele>2159.74</ele>
        <time>2015-03-28T09:30:35Z</time>
      </trkpt>
      <trkpt lat="45.91994" lon="6.51118">
        <ele>2160.7</ele>
        <time>2015-03-28T09:31:05Z</time>
      </trkpt>
      <trkpt lat="45.91989" lon="6.51119">
        <ele>2161.18</ele>
        <time>2015-03-28T09:31:35Z</time>
      </trkpt>
      <trkpt lat="45.91993" lon="6.51123">
        <ele>2161.18</ele>
        <time>2015-03-28T09:32:05Z</time>
      </trkpt>
      <trkpt lat="45.91994" lon="6.51125">
        <ele>2161.66</ele>
        <time>2015-03-28T09:32:35Z</time>
      </trkpt>
      <trkpt lat="45.91997" lon="6.51134">
        <ele>2162.14</ele>
        <time>2015-03-28T09:33:05Z</time>
      </trkpt>
      <trkpt lat="45.91988" lon="6.51139">
        <ele>2162.14</ele>
        <time>2015-03-28T09:33:34Z</time>
      </trkpt>
      <trkpt lat="45.91991" lon="6.51126">
        <ele>2162.14</ele>
        <time>2015-03-28T09:34:05Z</time>
      </trkpt>
      <trkpt lat="45.91989" lon="6.5113">
        <ele>2161.18</ele>
        <time>2015-03-28T09:34:35Z</time>
      </trkpt>
      <trkpt lat="45.91987" lon="6.51131">
        <ele>2162.14</ele>
        <time>2015-03-28T09:35:05Z</time>
      </trkpt>
      <trkpt lat="45.9199" lon="6.51127">
        <ele>2162.14</ele>
        <time>2015-03-28T09:35:35Z</time>
      </trkpt>
      <trkpt lat="45.9199" lon="6.51127">
        <ele>2162.14</ele>
        <time>2015-03-28T09:36:05Z</time>
      </trkpt>
      <trkpt lat="45.91989" lon="6.51121">
        <ele>2162.14</ele>
        <time>2015-03-28T09:36:35Z</time>
      </trkpt>
      <trkpt lat="45.91991" lon="6.51122">
        <ele>2163.1</ele>
        <time>2015-03-28T09:37:05Z</time>
      </trkpt>
      <trkpt lat="45.91996" lon="6.51141">
        <ele>2163.58</ele>
        <time>2015-03-28T09:37:35Z</time>
      </trkpt>
      <trkpt lat="45.91982" lon="6.51155">
        <ele>2165.99</ele>
        <time>2015-03-28T09:38:05Z</time>
      </trkpt>
      <trkpt lat="45.91969" lon="6.51185">
        <ele>2171.27</ele>
        <time>2015-03-28T09:38:35Z</time>
      </trkpt>
      <trkpt lat="45.91956" lon="6.51207">
        <ele>2175.6</ele>
        <time>2015-03-28T09:39:05Z</time>
      </trkpt>
      <trkpt lat="45.9194" lon="6.51227">
        <ele>2179.45</ele>
        <time>2015-03-28T09:39:35Z</time>
      </trkpt>
      <trkpt lat="45.91929" lon="6.51247">
        <ele>2182.81</ele>
        <time>2015-03-28T09:40:05Z</time>
      </trkpt>
      <trkpt lat="45.91917" lon="6.5127">
        <ele>2185.69</ele>
        <time>2015-03-28T09:40:35Z</time>
      </trkpt>
      <trkpt lat="45.91907" lon="6.51285">
        <ele>2190.02</ele>
        <time>2015-03-28T09:41:05Z</time>
      </trkpt>
      <trkpt lat="45.91901" lon="6.51308">
        <ele>2195.79</ele>
        <time>2015-03-28T09:41:35Z</time>
      </trkpt>
      <trkpt lat="45.91897" lon="6.51328">
        <ele>2199.15</ele>
        <time>2015-03-28T09:42:05Z</time>
      </trkpt>
      <trkpt lat="45.91895" lon="6.51348">
        <ele>2202.04</ele>
        <time>2015-03-28T09:42:35Z</time>
      </trkpt>
      <trkpt lat="45.91902" lon="6.51373">
        <ele>2206.84</ele>
        <time>2015-03-28T09:43:05Z</time>
      </trkpt>
      <trkpt lat="45.91911" lon="6.51394">
        <ele>2211.17</ele>
        <time>2015-03-28T09:43:35Z</time>
      </trkpt>
      <trkpt lat="45.9192" lon="6.5142">
        <ele>2213.57</ele>
        <time>2015-03-28T09:44:05Z</time>
      </trkpt>
      <trkpt lat="45.91931" lon="6.51441">
        <ele>2218.38</ele>
        <time>2015-03-28T09:44:35Z</time>
      </trkpt>
      <trkpt lat="45.91937" lon="6.5146">
        <ele>2222.71</ele>
        <time>2015-03-28T09:45:05Z</time>
      </trkpt>
      <trkpt lat="45.91941" lon="6.51473">
        <ele>2228.47</ele>
        <time>2015-03-28T09:45:35Z</time>
      </trkpt>
      <trkpt lat="45.91951" lon="6.51493">
        <ele>2233.28</ele>
        <time>2015-03-28T09:46:05Z</time>
      </trkpt>
      <trkpt lat="45.91962" lon="6.51507">
        <ele>2237.13</ele>
        <time>2015-03-28T09:46:35Z</time>
      </trkpt>
      <trkpt lat="45.91978" lon="6.51513">
        <ele>2241.93</ele>
        <time>2015-03-28T09:47:05Z</time>
      </trkpt>
      <trkpt lat="45.91984" lon="6.51521">
        <ele>2244.82</ele>
        <time>2015-03-28T09:47:35Z</time>
      </trkpt>
      <trkpt lat="45.91975" lon="6.51534">
        <ele>2249.62</ele>
        <time>2015-03-28T09:48:05Z</time>
      </trkpt>
      <trkpt lat="45.91959" lon="6.5155">
        <ele>2252.03</ele>
        <time>2015-03-28T09:48:35Z</time>
      </trkpt>
      <trkpt lat="45.91946" lon="6.51559">
        <ele>2255.87</ele>
        <time>2015-03-28T09:49:05Z</time>
      </trkpt>
      <trkpt lat="45.91925" lon="6.51565">
        <ele>2259.72</ele>
        <time>2015-03-28T09:49:35Z</time>
      </trkpt>
      <trkpt lat="45.91923" lon="6.51572">
        <ele>2263.56</ele>
        <time>2015-03-28T09:50:05Z</time>
      </trkpt>
      <trkpt lat="45.91923" lon="6.5157">
        <ele>2265.48</ele>
        <time>2015-03-28T09:50:35Z</time>
      </trkpt>
      <trkpt lat="45.91926" lon="6.51576">
        <ele>2266.93</ele>
        <time>2015-03-28T09:51:05Z</time>
      </trkpt>
      <trkpt lat="45.91937" lon="6.51594">
        <ele>2272.21</ele>
        <time>2015-03-28T09:51:35Z</time>
      </trkpt>
      <trkpt lat="45.91924" lon="6.51609">
        <ele>2275.58</ele>
        <time>2015-03-28T09:52:05Z</time>
      </trkpt>
      <trkpt lat="45.91912" lon="6.51617">
        <ele>2279.9</ele>
        <time>2015-03-28T09:52:35Z</time>
      </trkpt>
      <trkpt lat="45.91903" lon="6.51622">
        <ele>2283.27</ele>
        <time>2015-03-28T09:53:05Z</time>
      </trkpt>
      <trkpt lat="45.91889" lon="6.5162">
        <ele>2286.63</ele>
        <time>2015-03-28T09:53:35Z</time>
      </trkpt>
      <trkpt lat="45.91888" lon="6.51629">
        <ele>2290</ele>
        <time>2015-03-28T09:54:05Z</time>
      </trkpt>
      <trkpt lat="45.91895" lon="6.51645">
        <ele>2295.77</ele>
        <time>2015-03-28T09:54:35Z</time>
      </trkpt>
      <trkpt lat="45.91901" lon="6.51653">
        <ele>2298.65</ele>
        <time>2015-03-28T09:55:05Z</time>
      </trkpt>
      <trkpt lat="45.91884" lon="6.51661">
        <ele>2302.01</ele>
        <time>2015-03-28T09:55:35Z</time>
      </trkpt>
      <trkpt lat="45.91872" lon="6.51662">
        <ele>2305.38</ele>
        <time>2015-03-28T09:56:05Z</time>
      </trkpt>
      <trkpt lat="45.91881" lon="6.51678">
        <ele>2310.19</ele>
        <time>2015-03-28T09:56:35Z</time>
      </trkpt>
      <trkpt lat="45.91898" lon="6.51688">
        <ele>2315.47</ele>
        <time>2015-03-28T09:57:05Z</time>
      </trkpt>
      <trkpt lat="45.91906" lon="6.51694">
        <ele>2318.84</ele>
        <time>2015-03-28T09:57:35Z</time>
      </trkpt>
      <trkpt lat="45.91893" lon="6.51702">
        <ele>2322.2</ele>
        <time>2015-03-28T09:58:05Z</time>
      </trkpt>
      <trkpt lat="45.9188" lon="6.51711">
        <ele>2326.05</ele>
        <time>2015-03-28T09:58:35Z</time>
      </trkpt>
      <trkpt lat="45.91867" lon="6.51714">
        <ele>2329.89</ele>
        <time>2015-03-28T09:59:05Z</time>
      </trkpt>
      <trkpt lat="45.91856" lon="6.51716">
        <ele>2333.26</ele>
        <time>2015-03-28T09:59:35Z</time>
      </trkpt>
      <trkpt lat="45.91839" lon="6.51712">
        <ele>2338.54</ele>
        <time>2015-03-28T10:00:05Z</time>
      </trkpt>
      <trkpt lat="45.91835" lon="6.5171">
        <ele>2339.51</ele>
        <time>2015-03-28T10:00:35Z</time>
      </trkpt>
      <trkpt lat="45.91836" lon="6.51726">
        <ele>2343.83</ele>
        <time>2015-03-28T10:01:05Z</time>
      </trkpt>
      <trkpt lat="45.91832" lon="6.51735">
        <ele>2346.72</ele>
        <time>2015-03-28T10:01:35Z</time>
      </trkpt>
      <trkpt lat="45.91814" lon="6.51737">
        <ele>2351.52</ele>
        <time>2015-03-28T10:02:05Z</time>
      </trkpt>
      <trkpt lat="45.91804" lon="6.51757">
        <ele>2356.81</ele>
        <time>2015-03-28T10:02:35Z</time>
      </trkpt>
      <trkpt lat="45.91795" lon="6.51767">
        <ele>2361.62</ele>
        <time>2015-03-28T10:03:05Z</time>
      </trkpt>
      <trkpt lat="45.91789" lon="6.51785">
        <ele>2367.38</ele>
        <time>2015-03-28T10:03:35Z</time>
      </trkpt>
      <trkpt lat="45.91781" lon="6.51798">
        <ele>2372.67</ele>
        <time>2015-03-28T10:04:05Z</time>
      </trkpt>
      <trkpt lat="45.91776" lon="6.51809">
        <ele>2376.52</ele>
        <time>2015-03-28T10:04:35Z</time>
      </trkpt>
      <trkpt lat="45.91773" lon="6.5181">
        <ele>2376.04</ele>
        <time>2015-03-28T10:05:05Z</time>
      </trkpt>
      <trkpt lat="45.91776" lon="6.5181">
        <ele>2375.55</ele>
        <time>2015-03-28T10:05:35Z</time>
      </trkpt>
      <trkpt lat="45.9178" lon="6.51809">
        <ele>2375.55</ele>
        <time>2015-03-28T10:06:05Z</time>
      </trkpt>
      <trkpt lat="45.9178" lon="6.51811">
        <ele>2374.59</ele>
        <time>2015-03-28T10:06:35Z</time>
      </trkpt>
      <trkpt lat="45.91779" lon="6.51808">
        <ele>2375.07</ele>
        <time>2015-03-28T10:07:05Z</time>
      </trkpt>
      <trkpt lat="45.91779" lon="6.51809">
        <ele>2375.55</ele>
        <time>2015-03-28T10:07:35Z</time>
      </trkpt>
      <trkpt lat="45.91777" lon="6.51808">
        <ele>2375.55</ele>
        <time>2015-03-28T10:08:05Z</time>
      </trkpt>
      <trkpt lat="45.91775" lon="6.51809">
        <ele>2375.07</ele>
        <time>2015-03-28T10:08:35Z</time>
      </trkpt>
      <trkpt lat="45.91776" lon="6.51808">
        <ele>2374.59</ele>
        <time>2015-03-28T10:09:05Z</time>
      </trkpt>
      <trkpt lat="45.91773" lon="6.51809">
        <ele>2374.59</ele>
        <time>2015-03-28T10:09:35Z</time>
      </trkpt>
      <trkpt lat="45.91777" lon="6.51809">
        <ele>2374.59</ele>
        <time>2015-03-28T10:10:05Z</time>
      </trkpt>
      <trkpt lat="45.91777" lon="6.51808">
        <ele>2375.55</ele>
        <time>2015-03-28T10:10:35Z</time>
      </trkpt>
      <trkpt lat="45.91776" lon="6.51809">
        <ele>2374.59</ele>
        <time>2015-03-28T10:11:05Z</time>
      </trkpt>
      <trkpt lat="45.91775" lon="6.5181">
        <ele>2374.59</ele>
        <time>2015-03-28T10:11:35Z</time>
      </trkpt>
      <trkpt lat="45.91777" lon="6.51812">
        <ele>2375.07</ele>
        <time>2015-03-28T10:12:05Z</time>
      </trkpt>
      <trkpt lat="45.91777" lon="6.5181">
        <ele>2374.11</ele>
        <time>2015-03-28T10:12:35Z</time>
      </trkpt>
      <trkpt lat="45.91781" lon="6.51809">
        <ele>2374.11</ele>
        <time>2015-03-28T10:13:05Z</time>
      </trkpt>
      <trkpt lat="45.91779" lon="6.5181">
        <ele>2374.11</ele>
        <time>2015-03-28T10:13:35Z</time>
      </trkpt>
      <trkpt lat="45.9178" lon="6.5181">
        <ele>2374.59</ele>
        <time>2015-03-28T10:14:05Z</time>
      </trkpt>
      <trkpt lat="45.91778" lon="6.51811">
        <ele>2373.63</ele>
        <time>2015-03-28T10:14:35Z</time>
      </trkpt>
      <trkpt lat="45.91777" lon="6.5181">
        <ele>2374.11</ele>
        <time>2015-03-28T10:15:05Z</time>
      </trkpt>
      <trkpt lat="45.91775" lon="6.5181">
        <ele>2374.59</ele>
        <time>2015-03-28T10:15:35Z</time>
      </trkpt>
      <trkpt lat="45.91775" lon="6.51806">
        <ele>2374.11</ele>
        <time>2015-03-28T10:16:05Z</time>
      </trkpt>
      <trkpt lat="45.91772" lon="6.51787">
        <ele>2377</ele>
        <time>2015-03-28T10:16:35Z</time>
      </trkpt>
      <trkpt lat="45.91764" lon="6.51768">
        <ele>2378.92</ele>
        <time>2015-03-28T10:17:05Z</time>
      </trkpt>
      <trkpt lat="45.91748" lon="6.5175">
        <ele>2382.28</ele>
        <time>2015-03-28T10:17:35Z</time>
      </trkpt>
      <trkpt lat="45.91733" lon="6.51765">
        <ele>2388.05</ele>
        <time>2015-03-28T10:18:05Z</time>
      </trkpt>
      <trkpt lat="45.91731" lon="6.51773">
        <ele>2389.97</ele>
        <time>2015-03-28T10:18:35Z</time>
      </trkpt>
      <trkpt lat="45.91727" lon="6.51764">
        <ele>2389.01</ele>
        <time>2015-03-28T10:19:05Z</time>
      </trkpt>
      <trkpt lat="45.91727" lon="6.51757">
        <ele>2388.05</ele>
        <time>2015-03-28T10:19:35Z</time>
      </trkpt>
      <trkpt lat="45.91727" lon="6.51754">
        <ele>2387.09</ele>
        <time>2015-03-28T10:20:05Z</time>
      </trkpt>
      <trkpt lat="45.91721" lon="6.51738">
        <ele>2385.65</ele>
        <time>2015-03-28T10:20:35Z</time>
      </trkpt>
      <trkpt lat="45.91719" lon="6.51734">
        <ele>2383.73</ele>
        <time>2015-03-28T10:21:05Z</time>
      </trkpt>
      <trkpt lat="45.91722" lon="6.51728">
        <ele>2383.25</ele>
        <time>2015-03-28T10:21:35Z</time>
      </trkpt>
      <trkpt lat="45.91722" lon="6.51728">
        <ele>2382.76</ele>
        <time>2015-03-28T10:22:05Z</time>
      </trkpt>
      <trkpt lat="45.91719" lon="6.5173">
        <ele>2381.8</ele>
        <time>2015-03-28T10:22:35Z</time>
      </trkpt>
      <trkpt lat="45.91721" lon="6.51731">
        <ele>2381.8</ele>
        <time>2015-03-28T10:23:05Z</time>
      </trkpt>
      <trkpt lat="45.9172" lon="6.51733">
        <ele>2382.28</ele>
        <time>2015-03-28T10:23:35Z</time>
      </trkpt>
      <trkpt lat="45.9172" lon="6.5173">
        <ele>2381.32</ele>
        <time>2015-03-28T10:24:05Z</time>
      </trkpt>
      <trkpt lat="45.91722" lon="6.5173">
        <ele>2381.32</ele>
        <time>2015-03-28T10:24:35Z</time>
      </trkpt>
      <trkpt lat="45.91721" lon="6.51731">
        <ele>2380.84</ele>
        <time>2015-03-28T10:25:05Z</time>
      </trkpt>
      <trkpt lat="45.9172" lon="6.51732">
        <ele>2381.8</ele>
        <time>2015-03-28T10:25:35Z</time>
      </trkpt>
      <trkpt lat="45.91722" lon="6.51728">
        <ele>2381.32</ele>
        <time>2015-03-28T10:26:05Z</time>
      </trkpt>
      <trkpt lat="45.91722" lon="6.51731">
        <ele>2381.32</ele>
        <time>2015-03-28T10:26:35Z</time>
      </trkpt>
      <trkpt lat="45.91722" lon="6.5173">
        <ele>2380.84</ele>
        <time>2015-03-28T10:27:05Z</time>
      </trkpt>
      <trkpt lat="45.9172" lon="6.51731">
        <ele>2381.32</ele>
        <time>2015-03-28T10:27:35Z</time>
      </trkpt>
      <trkpt lat="45.91721" lon="6.5173">
        <ele>2381.32</ele>
        <time>2015-03-28T10:28:05Z</time>
      </trkpt>
      <trkpt lat="45.9172" lon="6.51733">
        <ele>2381.32</ele>
        <time>2015-03-28T10:28:35Z</time>
      </trkpt>
      <trkpt lat="45.91721" lon="6.51732">
        <ele>2380.84</ele>
        <time>2015-03-28T10:29:05Z</time>
      </trkpt>
      <trkpt lat="45.91721" lon="6.51732">
        <ele>2381.32</ele>
        <time>2015-03-28T10:29:35Z</time>
      </trkpt>
      <trkpt lat="45.91721" lon="6.51731">
        <ele>2380.84</ele>
        <time>2015-03-28T10:30:05Z</time>
      </trkpt>
      <trkpt lat="45.91722" lon="6.51729">
        <ele>2382.76</ele>
        <time>2015-03-28T10:30:35Z</time>
      </trkpt>
      <trkpt lat="45.91722" lon="6.51731">
        <ele>2381.8</ele>
        <time>2015-03-28T10:31:05Z</time>
      </trkpt>
      <trkpt lat="45.91721" lon="6.5173">
        <ele>2381.8</ele>
        <time>2015-03-28T10:31:35Z</time>
      </trkpt>
      <trkpt lat="45.91722" lon="6.51734">
        <ele>2381.8</ele>
        <time>2015-03-28T10:32:05Z</time>
      </trkpt>
      <trkpt lat="45.91723" lon="6.51735">
        <ele>2381.8</ele>
        <time>2015-03-28T10:32:35Z</time>
      </trkpt>
      <trkpt lat="45.91735" lon="6.51742">
        <ele>2382.28</ele>
        <time>2015-03-28T10:33:05Z</time>
      </trkpt>
      <trkpt lat="45.91757" lon="6.51769">
        <ele>2379.4</ele>
        <time>2015-03-28T10:33:35Z</time>
      </trkpt>
      <trkpt lat="45.91756" lon="6.51769">
        <ele>2378.92</ele>
        <time>2015-03-28T10:34:05Z</time>
      </trkpt>
      <trkpt lat="45.91757" lon="6.51769">
        <ele>2379.4</ele>
        <time>2015-03-28T10:34:35Z</time>
      </trkpt>
      <trkpt lat="45.91756" lon="6.51769">
        <ele>2378.92</ele>
        <time>2015-03-28T10:35:05Z</time>
      </trkpt>
      <trkpt lat="45.91755" lon="6.51768">
        <ele>2378.92</ele>
        <time>2015-03-28T10:35:35Z</time>
      </trkpt>
      <trkpt lat="45.91755" lon="6.51769">
        <ele>2378.92</ele>
        <time>2015-03-28T10:36:05Z</time>
      </trkpt>
      <trkpt lat="45.91759" lon="6.5177">
        <ele>2378.92</ele>
        <time>2015-03-28T10:36:35Z</time>
      </trkpt>
      <trkpt lat="45.91825" lon="6.51745">
        <ele>2345.27</ele>
        <time>2015-03-28T10:37:05Z</time>
      </trkpt>
      <trkpt lat="45.91852" lon="6.51712">
        <ele>2329.41</ele>
        <time>2015-03-28T10:37:35Z</time>
      </trkpt>
      <trkpt lat="45.91873" lon="6.51667">
        <ele>2303.94</ele>
        <time>2015-03-28T10:38:05Z</time>
      </trkpt>
      <trkpt lat="45.91915" lon="6.5159">
        <ele>2269.81</ele>
        <time>2015-03-28T10:38:35Z</time>
      </trkpt>
      <trkpt lat="45.91932" lon="6.51559">
        <ele>2253.95</ele>
        <time>2015-03-28T10:39:05Z</time>
      </trkpt>
      <trkpt lat="45.91933" lon="6.51558">
        <ele>2254.91</ele>
        <time>2015-03-28T10:39:35Z</time>
      </trkpt>
      <trkpt lat="45.92008" lon="6.51502">
        <ele>2227.03</ele>
        <time>2015-03-28T10:40:05Z</time>
      </trkpt>
      <trkpt lat="45.92017" lon="6.51428">
        <ele>2200.11</ele>
        <time>2015-03-28T10:40:35Z</time>
      </trkpt>
      <trkpt lat="45.92053" lon="6.51336">
        <ele>2186.18</ele>
        <time>2015-03-28T10:41:05Z</time>
      </trkpt>
      <trkpt lat="45.92051" lon="6.5133">
        <ele>2186.66</ele>
        <time>2015-03-28T10:41:35Z</time>
      </trkpt>
      <trkpt lat="45.91991" lon="6.51186">
        <ele>2164.06</ele>
        <time>2015-03-28T10:42:05Z</time>
      </trkpt>
      <trkpt lat="45.91992" lon="6.51144">
        <ele>2159.74</ele>
        <time>2015-03-28T10:42:35Z</time>
      </trkpt>
      <trkpt lat="45.91991" lon="6.51147">
        <ele>2159.74</ele>
        <time>2015-03-28T10:43:05Z</time>
      </trkpt>
      <trkpt lat="45.91992" lon="6.51144">
        <ele>2159.26</ele>
        <time>2015-03-28T10:43:35Z</time>
      </trkpt>
      <trkpt lat="45.91974" lon="6.51079">
        <ele>2154.45</ele>
        <time>2015-03-28T10:44:05Z</time>
      </trkpt>
      <trkpt lat="45.91998" lon="6.50997">
        <ele>2132.82</ele>
        <time>2015-03-28T10:44:35Z</time>
      </trkpt>
      <trkpt lat="45.9201" lon="6.50965">
        <ele>2127.05</ele>
        <time>2015-03-28T10:45:05Z</time>
      </trkpt>
      <trkpt lat="45.92064" lon="6.50996">
        <ele>2093.89</ele>
        <time>2015-03-28T10:45:35Z</time>
      </trkpt>
      <trkpt lat="45.92081" lon="6.50967">
        <ele>2081.39</ele>
        <time>2015-03-28T10:46:05Z</time>
      </trkpt>
      <trkpt lat="45.92111" lon="6.50898">
        <ele>2065.53</ele>
        <time>2015-03-28T10:46:35Z</time>
      </trkpt>
      <trkpt lat="45.92118" lon="6.50895">
        <ele>2062.17</ele>
        <time>2015-03-28T10:47:05Z</time>
      </trkpt>
      <trkpt lat="45.92147" lon="6.50865">
        <ele>2041.98</ele>
        <time>2015-03-28T10:47:35Z</time>
      </trkpt>
      <trkpt lat="45.92164" lon="6.50834">
        <ele>2022.75</ele>
        <time>2015-03-28T10:48:05Z</time>
      </trkpt>
      <trkpt lat="45.92165" lon="6.50834">
        <ele>2020.83</ele>
        <time>2015-03-28T10:48:35Z</time>
      </trkpt>
      <trkpt lat="45.92174" lon="6.50783">
        <ele>2014.58</ele>
        <time>2015-03-28T10:49:05Z</time>
      </trkpt>
      <trkpt lat="45.92223" lon="6.50754">
        <ele>2001.12</ele>
        <time>2015-03-28T10:49:35Z</time>
      </trkpt>
      <trkpt lat="45.92258" lon="6.50694">
        <ele>1982.38</ele>
        <time>2015-03-28T10:50:05Z</time>
      </trkpt>
      <trkpt lat="45.92306" lon="6.50674">
        <ele>1958.34</ele>
        <time>2015-03-28T10:50:35Z</time>
      </trkpt>
      <trkpt lat="45.92313" lon="6.50677">
        <ele>1958.34</ele>
        <time>2015-03-28T10:51:05Z</time>
      </trkpt>
      <trkpt lat="45.92334" lon="6.50672">
        <ele>1954.02</ele>
        <time>2015-03-28T10:51:35Z</time>
      </trkpt>
      <trkpt lat="45.92424" lon="6.50633">
        <ele>1914.12</ele>
        <time>2015-03-28T10:52:05Z</time>
      </trkpt>
      <trkpt lat="45.92432" lon="6.50604">
        <ele>1900.66</ele>
        <time>2015-03-28T10:52:35Z</time>
      </trkpt>
      <trkpt lat="45.92467" lon="6.50512">
        <ele>1869.42</ele>
        <time>2015-03-28T10:53:05Z</time>
      </trkpt>
      <trkpt lat="45.92469" lon="6.50508">
        <ele>1870.38</ele>
        <time>2015-03-28T10:53:35Z</time>
      </trkpt>
      <trkpt lat="45.92486" lon="6.50477">
        <ele>1853.56</ele>
        <time>2015-03-28T10:54:05Z</time>
      </trkpt>
      <trkpt lat="45.9255" lon="6.50392">
        <ele>1810.78</ele>
        <time>2015-03-28T10:54:35Z</time>
      </trkpt>
      <trkpt lat="45.92548" lon="6.50352">
        <ele>1794.92</ele>
        <time>2015-03-28T10:55:05Z</time>
      </trkpt>
      <trkpt lat="45.92479" lon="6.50359">
        <ele>1786.27</ele>
        <time>2015-03-28T10:55:35Z</time>
      </trkpt>
      <trkpt lat="45.925" lon="6.50313">
        <ele>1759.35</ele>
        <time>2015-03-28T10:56:05Z</time>
      </trkpt>
      <trkpt lat="45.92495" lon="6.50307">
        <ele>1750.7</ele>
        <time>2015-03-28T10:56:35Z</time>
      </trkpt>
      <trkpt lat="45.92503" lon="6.50266">
        <ele>1737.72</ele>
        <time>2015-03-28T10:57:05Z</time>
      </trkpt>
      <trkpt lat="45.92512" lon="6.50231">
        <ele>1725.22</ele>
        <time>2015-03-28T10:57:35Z</time>
      </trkpt>
      <trkpt lat="45.92525" lon="6.50189">
        <ele>1707.44</ele>
        <time>2015-03-28T10:58:05Z</time>
      </trkpt>
      <trkpt lat="45.92526" lon="6.50154">
        <ele>1695.42</ele>
        <time>2015-03-28T10:58:35Z</time>
      </trkpt>
      <trkpt lat="45.9254" lon="6.50112">
        <ele>1680.52</ele>
        <time>2015-03-28T10:59:05Z</time>
      </trkpt>
      <trkpt lat="45.92569" lon="6.50061">
        <ele>1646.4</ele>
        <time>2015-03-28T10:59:35Z</time>
      </trkpt>
      <trkpt lat="45.92566" lon="6.50056">
        <ele>1645.91</ele>
        <time>2015-03-28T11:00:05Z</time>
      </trkpt>
      <trkpt lat="45.92551" lon="6.49981">
        <ele>1639.19</ele>
        <time>2015-03-28T11:00:35Z</time>
      </trkpt>
      <trkpt lat="45.92567" lon="6.49853">
        <ele>1624.28</ele>
        <time>2015-03-28T11:01:05Z</time>
      </trkpt>
      <trkpt lat="45.92576" lon="6.49808">
        <ele>1616.11</ele>
        <time>2015-03-28T11:01:35Z</time>
      </trkpt>
      <trkpt lat="45.9257" lon="6.49813">
        <ele>1615.63</ele>
        <time>2015-03-28T11:02:05Z</time>
      </trkpt>
      <trkpt lat="45.92584" lon="6.49787">
        <ele>1604.58</ele>
        <time>2015-03-28T11:02:35Z</time>
      </trkpt>
      <trkpt lat="45.92613" lon="6.49782">
        <ele>1589.68</ele>
        <time>2015-03-28T11:03:05Z</time>
      </trkpt>
      <trkpt lat="45.92614" lon="6.49789">
        <ele>1589.2</ele>
        <time>2015-03-28T11:03:35Z</time>
      </trkpt>
      <trkpt lat="45.92631" lon="6.49771">
        <ele>1577.18</ele>
        <time>2015-03-28T11:04:05Z</time>
      </trkpt>
      <trkpt lat="45.92652" lon="6.4977">
        <ele>1570.45</ele>
        <time>2015-03-28T11:04:35Z</time>
      </trkpt>
      <trkpt lat="45.92661" lon="6.49748">
        <ele>1555.55</ele>
        <time>2015-03-28T11:05:05Z</time>
      </trkpt>
      <trkpt lat="45.92659" lon="6.49738">
        <ele>1553.15</ele>
        <time>2015-03-28T11:05:35Z</time>
      </trkpt>
      <trkpt lat="45.92663" lon="6.49689">
        <ele>1544.98</ele>
        <time>2015-03-28T11:06:05Z</time>
      </trkpt>
      <trkpt lat="45.92666" lon="6.49665">
        <ele>1543.53</ele>
        <time>2015-03-28T11:06:35Z</time>
      </trkpt>
      <trkpt lat="45.9268" lon="6.49614">
        <ele>1542.09</ele>
        <time>2015-03-28T11:07:05Z</time>
      </trkpt>
      <trkpt lat="45.92701" lon="6.49565">
        <ele>1540.65</ele>
        <time>2015-03-28T11:07:35Z</time>
      </trkpt>
      <trkpt lat="45.92631" lon="6.49544">
        <ele>1537.77</ele>
        <time>2015-03-28T11:08:05Z</time>
      </trkpt>
      <trkpt lat="45.92682" lon="6.49443">
        <ele>1522.39</ele>
        <time>2015-03-28T11:08:35Z</time>
      </trkpt>
      <trkpt lat="45.9271" lon="6.49442">
        <ele>1522.87</ele>
        <time>2015-03-28T11:09:05Z</time>
      </trkpt>
      <trkpt lat="45.92761" lon="6.49472">
        <ele>1517.58</ele>
        <time>2015-03-28T11:09:35Z</time>
      </trkpt>
      <trkpt lat="45.92773" lon="6.4949">
        <ele>1515.66</ele>
        <time>2015-03-28T11:10:05Z</time>
      </trkpt>
      <trkpt lat="45.92772" lon="6.49486">
        <ele>1515.66</ele>
        <time>2015-03-28T11:10:35Z</time>
      </trkpt>
      <trkpt lat="45.92773" lon="6.49498">
        <ele>1513.73</ele>
        <time>2015-03-28T11:11:05Z</time>
      </trkpt>
      <trkpt lat="45.92781" lon="6.49502">
        <ele>1514.69</ele>
        <time>2015-03-28T11:11:35Z</time>
      </trkpt>
      <trkpt lat="45.92783" lon="6.4951">
        <ele>1513.73</ele>
        <time>2015-03-28T11:12:05Z</time>
      </trkpt>
      <trkpt lat="45.92783" lon="6.4951">
        <ele>1513.25</ele>
        <time>2015-03-28T11:12:35Z</time>
      </trkpt>
      <trkpt lat="45.92783" lon="6.49507">
        <ele>1513.25</ele>
        <time>2015-03-28T11:13:05Z</time>
      </trkpt>
      <trkpt lat="45.92784" lon="6.4951">
        <ele>1512.77</ele>
        <time>2015-03-28T11:13:35Z</time>
      </trkpt>
      <trkpt lat="45.92784" lon="6.49508">
        <ele>1512.77</ele>
        <time>2015-03-28T11:14:05Z</time>
      </trkpt>
      <trkpt lat="45.92783" lon="6.49508">
        <ele>1512.29</ele>
        <time>2015-03-28T11:14:35Z</time>
      </trkpt>
      <trkpt lat="45.92783" lon="6.49506">
        <ele>1512.29</ele>
        <time>2015-03-28T11:15:05Z</time>
      </trkpt>
      <trkpt lat="45.92784" lon="6.49505">
        <ele>1511.81</ele>
        <time>2015-03-28T11:15:35Z</time>
      </trkpt>
      <trkpt lat="45.92781" lon="6.49504">
        <ele>1511.81</ele>
        <time>2015-03-28T11:16:05Z</time>
      </trkpt>
      <trkpt lat="45.9278" lon="6.49501">
        <ele>1511.81</ele>
        <time>2015-03-28T11:16:35Z</time>
      </trkpt>
      <trkpt lat="45.9278" lon="6.49506">
        <ele>1511.81</ele>
        <time>2015-03-28T11:17:05Z</time>
      </trkpt>
      <trkpt lat="45.92782" lon="6.49505">
        <ele>1510.85</ele>
        <time>2015-03-28T11:17:35Z</time>
      </trkpt>
      <trkpt lat="45.92782" lon="6.49508">
        <ele>1510.85</ele>
        <time>2015-03-28T11:18:05Z</time>
      </trkpt>
      <trkpt lat="45.92782" lon="6.49504">
        <ele>1511.33</ele>
        <time>2015-03-28T11:18:35Z</time>
      </trkpt>
      <trkpt lat="45.92782" lon="6.49505">
        <ele>1510.85</ele>
        <time>2015-03-28T11:19:05Z</time>
      </trkpt>
      <trkpt lat="45.92781" lon="6.49507">
        <ele>1511.81</ele>
        <time>2015-03-28T11:19:35Z</time>
      </trkpt>
      <trkpt lat="45.92783" lon="6.49508">
        <ele>1510.85</ele>
        <time>2015-03-28T11:20:05Z</time>
      </trkpt>
      <trkpt lat="45.92781" lon="6.49505">
        <ele>1510.85</ele>
        <time>2015-03-28T11:20:35Z</time>
      </trkpt>
      <trkpt lat="45.92781" lon="6.49506">
        <ele>1510.85</ele>
        <time>2015-03-28T11:21:05Z</time>
      </trkpt>
      <trkpt lat="45.92783" lon="6.49504">
        <ele>1510.37</ele>
        <time>2015-03-28T11:21:35Z</time>
      </trkpt>
      <trkpt lat="45.92781" lon="6.49504">
        <ele>1510.37</ele>
        <time>2015-03-28T11:22:05Z</time>
      </trkpt>
      <trkpt lat="45.9278" lon="6.49503">
        <ele>1510.37</ele>
        <time>2015-03-28T11:22:35Z</time>
      </trkpt>
      <trkpt lat="45.92781" lon="6.49506">
        <ele>1509.89</ele>
        <time>2015-03-28T11:23:05Z</time>
      </trkpt>
      <trkpt lat="45.9278" lon="6.49509">
        <ele>1509.89</ele>
        <time>2015-03-28T11:23:35Z</time>
      </trkpt>
      <trkpt lat="45.92778" lon="6.49501">
        <ele>1510.37</ele>
        <time>2015-03-28T11:24:05Z</time>
      </trkpt>
      <trkpt lat="45.92775" lon="6.495">
        <ele>1510.37</ele>
        <time>2015-03-28T11:24:35Z</time>
      </trkpt>
      <trkpt lat="45.92777" lon="6.49501">
        <ele>1510.37</ele>
        <time>2015-03-28T11:25:05Z</time>
      </trkpt>
      <trkpt lat="45.92776" lon="6.49501">
        <ele>1510.85</ele>
        <time>2015-03-28T11:25:35Z</time>
      </trkpt>
      <trkpt lat="45.92778" lon="6.49506">
        <ele>1510.85</ele>
        <time>2015-03-28T11:26:05Z</time>
      </trkpt>
      <trkpt lat="45.9278" lon="6.49503">
        <ele>1510.37</ele>
        <time>2015-03-28T11:26:35Z</time>
      </trkpt>
      <trkpt lat="45.9278" lon="6.49504">
        <ele>1511.33</ele>
        <time>2015-03-28T11:27:05Z</time>
      </trkpt>
      <trkpt lat="45.9278" lon="6.49504">
        <ele>1510.85</ele>
        <time>2015-03-28T11:27:35Z</time>
      </trkpt>
      <trkpt lat="45.9278" lon="6.49504">
        <ele>1510.37</ele>
        <time>2015-03-28T11:28:05Z</time>
      </trkpt>
      <trkpt lat="45.92781" lon="6.495">
        <ele>1510.85</ele>
        <time>2015-03-28T11:28:35Z</time>
      </trkpt>
      <trkpt lat="45.92783" lon="6.49503">
        <ele>1510.37</ele>
        <time>2015-03-28T11:29:05Z</time>
      </trkpt>
      <trkpt lat="45.92783" lon="6.49503">
        <ele>1509.89</ele>
        <time>2015-03-28T11:29:35Z</time>
      </trkpt>
      <trkpt lat="45.92785" lon="6.49505">
        <ele>1509.41</ele>
        <time>2015-03-28T11:30:05Z</time>
      </trkpt>
      <trkpt lat="45.92783" lon="6.495">
        <ele>1508.93</ele>
        <time>2015-03-28T11:30:35Z</time>
      </trkpt>
      <trkpt lat="45.92783" lon="6.49501">
        <ele>1509.41</ele>
        <time>2015-03-28T11:31:05Z</time>
      </trkpt>
      <trkpt lat="45.92784" lon="6.49503">
        <ele>1508.45</ele>
        <time>2015-03-28T11:31:35Z</time>
      </trkpt>
      <trkpt lat="45.92784" lon="6.49503">
        <ele>1508.93</ele>
        <time>2015-03-28T11:32:05Z</time>
      </trkpt>
      <trkpt lat="45.92782" lon="6.49499">
        <ele>1507.97</ele>
        <time>2015-03-28T11:32:35Z</time>
      </trkpt>
      <trkpt lat="45.92786" lon="6.49503">
        <ele>1507.97</ele>
        <time>2015-03-28T11:33:05Z</time>
      </trkpt>
      <trkpt lat="45.92783" lon="6.49501">
        <ele>1507.97</ele>
        <time>2015-03-28T11:33:35Z</time>
      </trkpt>
      <trkpt lat="45.92786" lon="6.49502">
        <ele>1507.48</ele>
        <time>2015-03-28T11:34:05Z</time>
      </trkpt>
      <trkpt lat="45.92787" lon="6.49505">
        <ele>1507.48</ele>
        <time>2015-03-28T11:34:35Z</time>
      </trkpt>
      <trkpt lat="45.92787" lon="6.49502">
        <ele>1506.52</ele>
        <time>2015-03-28T11:35:05Z</time>
      </trkpt>
      <trkpt lat="45.92785" lon="6.495">
        <ele>1507.48</ele>
        <time>2015-03-28T11:35:35Z</time>
      </trkpt>
      <trkpt lat="45.92788" lon="6.49506">
        <ele>1507</ele>
        <time>2015-03-28T11:36:05Z</time>
      </trkpt>
      <trkpt lat="45.92786" lon="6.49504">
        <ele>1507.48</ele>
        <time>2015-03-28T11:36:35Z</time>
      </trkpt>
      <trkpt lat="45.92787" lon="6.49502">
        <ele>1507</ele>
        <time>2015-03-28T11:37:05Z</time>
      </trkpt>
      <trkpt lat="45.92787" lon="6.49506">
        <ele>1507</ele>
        <time>2015-03-28T11:37:35Z</time>
      </trkpt>
      <trkpt lat="45.92786" lon="6.49508">
        <ele>1507</ele>
        <time>2015-03-28T11:38:05Z</time>
      </trkpt>
      <trkpt lat="45.92784" lon="6.49506">
        <ele>1506.04</ele>
        <time>2015-03-28T11:38:35Z</time>
      </trkpt>
      <trkpt lat="45.92786" lon="6.49503">
        <ele>1506.52</ele>
        <time>2015-03-28T11:39:05Z</time>
      </trkpt>
      <trkpt lat="45.92787" lon="6.49504">
        <ele>1506.04</ele>
        <time>2015-03-28T11:39:35Z</time>
      </trkpt>
      <trkpt lat="45.92788" lon="6.49506">
        <ele>1505.56</ele>
        <time>2015-03-28T11:40:05Z</time>
      </trkpt>
      <trkpt lat="45.92786" lon="6.49504">
        <ele>1506.04</ele>
        <time>2015-03-28T11:40:35Z</time>
      </trkpt>
      <trkpt lat="45.92786" lon="6.49504">
        <ele>1505.56</ele>
        <time>2015-03-28T11:41:05Z</time>
      </trkpt>
      <trkpt lat="45.92787" lon="6.49506">
        <ele>1505.56</ele>
        <time>2015-03-28T11:41:35Z</time>
      </trkpt>
      <trkpt lat="45.92788" lon="6.49504">
        <ele>1505.56</ele>
        <time>2015-03-28T11:42:05Z</time>
      </trkpt>
      <trkpt lat="45.92786" lon="6.49507">
        <ele>1505.08</ele>
        <time>2015-03-28T11:42:35Z</time>
      </trkpt>
      <trkpt lat="45.92787" lon="6.49506">
        <ele>1505.08</ele>
        <time>2015-03-28T11:43:05Z</time>
      </trkpt>
      <trkpt lat="45.9279" lon="6.49508">
        <ele>1505.08</ele>
        <time>2015-03-28T11:43:35Z</time>
      </trkpt>
      <trkpt lat="45.92793" lon="6.49506">
        <ele>1504.6</ele>
        <time>2015-03-28T11:44:05Z</time>
      </trkpt>
      <trkpt lat="45.92796" lon="6.49504">
        <ele>1504.6</ele>
        <time>2015-03-28T11:44:35Z</time>
      </trkpt>
      <trkpt lat="45.92796" lon="6.49505">
        <ele>1504.12</ele>
        <time>2015-03-28T11:45:05Z</time>
      </trkpt>
      <trkpt lat="45.9279" lon="6.49503">
        <ele>1503.64</ele>
        <time>2015-03-28T11:45:35Z</time>
      </trkpt>
      <trkpt lat="45.92789" lon="6.49505">
        <ele>1504.6</ele>
        <time>2015-03-28T11:46:05Z</time>
      </trkpt>
      <trkpt lat="45.92788" lon="6.49507">
        <ele>1504.12</ele>
        <time>2015-03-28T11:46:35Z</time>
      </trkpt>
      <trkpt lat="45.92792" lon="6.49507">
        <ele>1503.64</ele>
        <time>2015-03-28T11:47:05Z</time>
      </trkpt>
      <trkpt lat="45.92793" lon="6.49508">
        <ele>1503.64</ele>
        <time>2015-03-28T11:47:35Z</time>
      </trkpt>
      <trkpt lat="45.92792" lon="6.49508">
        <ele>1503.16</ele>
        <time>2015-03-28T11:48:05Z</time>
      </trkpt>
      <trkpt lat="45.92791" lon="6.49505">
        <ele>1503.16</ele>
        <time>2015-03-28T11:48:35Z</time>
      </trkpt>
      <trkpt lat="45.92791" lon="6.49507">
        <ele>1503.16</ele>
        <time>2015-03-28T11:49:05Z</time>
      </trkpt>
      <trkpt lat="45.92789" lon="6.49507">
        <ele>1502.68</ele>
        <time>2015-03-28T11:49:35Z</time>
      </trkpt>
      <trkpt lat="45.92789" lon="6.49507">
        <ele>1501.72</ele>
        <time>2015-03-28T11:50:05Z</time>
      </trkpt>
      <trkpt lat="45.92787" lon="6.49504">
        <ele>1502.2</ele>
        <time>2015-03-28T11:50:35Z</time>
      </trkpt>
      <trkpt lat="45.92786" lon="6.49507">
        <ele>1501.72</ele>
        <time>2015-03-28T11:51:05Z</time>
      </trkpt>
      <trkpt lat="45.92789" lon="6.49506">
        <ele>1502.2</ele>
        <time>2015-03-28T11:51:35Z</time>
      </trkpt>
      <trkpt lat="45.92783" lon="6.49501">
        <ele>1503.16</ele>
        <time>2015-03-28T11:52:05Z</time>
      </trkpt>
      <trkpt lat="45.92774" lon="6.4949">
        <ele>1502.68</ele>
        <time>2015-03-28T11:52:35Z</time>
      </trkpt>
      <trkpt lat="45.92765" lon="6.49472">
        <ele>1503.64</ele>
        <time>2015-03-28T11:53:05Z</time>
      </trkpt>
      <trkpt lat="45.92757" lon="6.49455">
        <ele>1504.6</ele>
        <time>2015-03-28T11:53:35Z</time>
      </trkpt>
      <trkpt lat="45.92734" lon="6.49445">
        <ele>1506.52</ele>
        <time>2015-03-28T11:54:05Z</time>
      </trkpt>
      <trkpt lat="45.92712" lon="6.49434">
        <ele>1508.45</ele>
        <time>2015-03-28T11:54:35Z</time>
      </trkpt>
      <trkpt lat="45.92713" lon="6.49433">
        <ele>1507.97</ele>
        <time>2015-03-28T11:55:05Z</time>
      </trkpt>
      <trkpt lat="45.92711" lon="6.49434">
        <ele>1508.45</ele>
        <time>2015-03-28T11:55:35Z</time>
      </trkpt>
      <trkpt lat="45.92716" lon="6.49386">
        <ele>1505.08</ele>
        <time>2015-03-28T11:56:05Z</time>
      </trkpt>
      <trkpt lat="45.92663" lon="6.49268">
        <ele>1494.99</ele>
        <time>2015-03-28T11:56:35Z</time>
      </trkpt>
      <trkpt lat="45.92634" lon="6.49248">
        <ele>1496.91</ele>
        <time>2015-03-28T11:57:05Z</time>
      </trkpt>
      <trkpt lat="45.92622" lon="6.49234">
        <ele>1499.31</ele>
        <time>2015-03-28T11:57:35Z</time>
      </trkpt>
      <trkpt lat="45.92618" lon="6.49232">
        <ele>1498.83</ele>
        <time>2015-03-28T11:58:05Z</time>
      </trkpt>
      <trkpt lat="45.92607" lon="6.49227">
        <ele>1499.31</ele>
        <time>2015-03-28T11:58:35Z</time>
      </trkpt>
      <trkpt lat="45.9258" lon="6.49221">
        <ele>1501.72</ele>
        <time>2015-03-28T11:59:05Z</time>
      </trkpt>
      <trkpt lat="45.9255" lon="6.49215">
        <ele>1503.16</ele>
        <time>2015-03-28T11:59:35Z</time>
      </trkpt>
      <trkpt lat="45.92521" lon="6.492">
        <ele>1505.08</ele>
        <time>2015-03-28T12:00:05Z</time>
      </trkpt>
      <trkpt lat="45.9249" lon="6.49187">
        <ele>1507</ele>
        <time>2015-03-28T12:00:35Z</time>
      </trkpt>
      <trkpt lat="45.92468" lon="6.49161">
        <ele>1508.93</ele>
        <time>2015-03-28T12:01:05Z</time>
      </trkpt>
      <trkpt lat="45.92463" lon="6.49155">
        <ele>1509.41</ele>
        <time>2015-03-28T12:01:35Z</time>
      </trkpt>
      <trkpt lat="45.92454" lon="6.4914">
        <ele>1507.97</ele>
        <time>2015-03-28T12:02:05Z</time>
      </trkpt>
      <trkpt lat="45.92362" lon="6.491">
        <ele>1491.14</ele>
        <time>2015-03-28T12:02:35Z</time>
      </trkpt>
      <trkpt lat="45.92168" lon="6.48874">
        <ele>1461.82</ele>
        <time>2015-03-28T12:03:05Z</time>
      </trkpt>
      <trkpt lat="45.92176" lon="6.48827">
        <ele>1462.78</ele>
        <time>2015-03-28T12:03:35Z</time>
      </trkpt>
      <trkpt lat="45.92179" lon="6.48806">
        <ele>1466.15</ele>
        <time>2015-03-28T12:04:05Z</time>
      </trkpt>
      <trkpt lat="45.92174" lon="6.48771">
        <ele>1467.59</ele>
        <time>2015-03-28T12:04:35Z</time>
      </trkpt>
      <trkpt lat="45.92164" lon="6.4874">
        <ele>1469.51</ele>
        <time>2015-03-28T12:05:05Z</time>
      </trkpt>
      <trkpt lat="45.92156" lon="6.4871">
        <ele>1471.44</ele>
        <time>2015-03-28T12:05:35Z</time>
      </trkpt>
      <trkpt lat="45.9214" lon="6.48689">
        <ele>1473.36</ele>
        <time>2015-03-28T12:06:05Z</time>
      </trkpt>
      <trkpt lat="45.92133" lon="6.48622">
        <ele>1470.47</ele>
        <time>2015-03-28T12:06:35Z</time>
      </trkpt>
      <trkpt lat="45.9219" lon="6.48491">
        <ele>1458.94</ele>
        <time>2015-03-28T12:07:05Z</time>
      </trkpt>
      <trkpt lat="45.92248" lon="6.48423">
        <ele>1453.17</ele>
        <time>2015-03-28T12:07:35Z</time>
      </trkpt>
      <trkpt lat="45.92269" lon="6.48423">
        <ele>1452.21</ele>
        <time>2015-03-28T12:08:05Z</time>
      </trkpt>
      <trkpt lat="45.92297" lon="6.48399">
        <ele>1450.29</ele>
        <time>2015-03-28T12:08:35Z</time>
      </trkpt>
      <trkpt lat="45.92302" lon="6.48391">
        <ele>1450.29</ele>
        <time>2015-03-28T12:09:05Z</time>
      </trkpt>
      <trkpt lat="45.92303" lon="6.48395">
        <ele>1449.81</ele>
        <time>2015-03-28T12:09:35Z</time>
      </trkpt>
      <trkpt lat="45.92303" lon="6.48395">
        <ele>1449.32</ele>
        <time>2015-03-28T12:10:05Z</time>
      </trkpt>
      <trkpt lat="45.92316" lon="6.48389">
        <ele>1449.81</ele>
        <time>2015-03-28T12:10:35Z</time>
      </trkpt>
      <trkpt lat="45.92338" lon="6.48354">
        <ele>1449.81</ele>
        <time>2015-03-28T12:11:05Z</time>
      </trkpt>
      <trkpt lat="45.92347" lon="6.4834">
        <ele>1449.81</ele>
        <time>2015-03-28T12:11:35Z</time>
      </trkpt>
      <trkpt lat="45.92348" lon="6.48336">
        <ele>1450.29</ele>
        <time>2015-03-28T12:12:05Z</time>
      </trkpt>
      <trkpt lat="45.92347" lon="6.48335">
        <ele>1450.77</ele>
        <time>2015-03-28T12:12:35Z</time>
      </trkpt>
      <trkpt lat="45.92349" lon="6.48336">
        <ele>1449.81</ele>
        <time>2015-03-28T12:13:05Z</time>
      </trkpt>
      <trkpt lat="45.9235" lon="6.48336">
        <ele>1450.29</ele>
        <time>2015-03-28T12:13:31Z</time>
      </trkpt>
    </trkseg>
  </trk>
</gpx>